sensor_id;sensor_type;location;lat;lon;timestamp;temperature;humidity
36552;DHT22;22559;54.176;12.102;2023-12-07T00:00:05;0.40;99.90
36552;DHT22;22559;54.176;12.102;2023-12-07T00:02:31;0.40;99.90
36552;DHT22;22559;54.176;12.102;2023-12-07T00:04:56;0.40;99.90
36552;DHT22;22559;54.176;12.102;2023-12-07T00:07:22;0.40;99.90
36552;DHT22;22559;54.176;12.102;2023-12-07T00:09:47;0.50;99.90
36552;DHT22;22559;54.176;12.102;2023-12-07T00:12:13;0.50;99.90
36552;DHT22;22559;54.176;12.102;2023-12-07T00:14:39;0.50;99.90
36552;DHT22;22559;54.176;12.102;2023-12-07T00:17:04;0.50;99.90
36552;DHT22;22559;54.176;12.102;2023-12-07T00:19:30;0.50;99.90
36552;DHT22;22559;54.176;12.102;2023-12-07T00:21:55;0.50;99.90
36552;DHT22;22559;54.176;12.102;2023-12-07T00:24:21;0.50;99.90
36552;DHT22;22559;54.176;12.102;2023-12-07T00:26:47;0.50;99.90
36552;DHT22;22559;54.176;12.102;2023-12-07T00:29:12;0.50;99.90
36552;DHT22;22559;54.176;12.102;2023-12-07T00:31:38;0.50;99.90
36552;DHT22;22559;54.176;12.102;2023-12-07T00:34:03;0.50;99.90
36552;DHT22;22559;54.176;12.102;2023-12-07T00:36:29;0.50;99.90
36552;DHT22;22559;54.176;12.102;2023-12-07T00:38:54;0.50;99.90
36552;DHT22;22559;54.176;12.102;2023-12-07T00:41:21;0.50;99.90
36552;DHT22;22559;54.176;12.102;2023-12-07T00:43:47;0.50;99.90
36552;DHT22;22559;54.176;12.102;2023-12-07T00:46:13;0.50;99.90
36552;DHT22;22559;54.176;12.102;2023-12-07T00:48:38;0.50;99.90
36552;DHT22;22559;54.176;12.102;2023-12-07T00:51:06;0.50;99.90
36552;DHT22;22559;54.176;12.102;2023-12-07T00:53:32;0.50;99.90
36552;DHT22;22559;54.176;12.102;2023-12-07T00:55:57;0.50;99.90
36552;DHT22;22559;54.176;12.102;2023-12-07T00:58:23;0.50;99.90
36552;DHT22;22559;54.176;12.102;2023-12-07T01:00:48;0.50;99.90
36552;DHT22;22559;54.176;12.102;2023-12-07T01:03:14;0.50;99.90
36552;DHT22;22559;54.176;12.102;2023-12-07T01:05:40;0.50;99.90
36552;DHT22;22559;54.176;12.102;2023-12-07T01:08:05;0.50;99.90
36552;DHT22;22559;54.176;12.102;2023-12-07T01:10:31;0.50;99.90
36552;DHT22;22559;54.176;12.102;2023-12-07T01:12:57;0.50;99.90
36552;DHT22;22559;54.176;12.102;2023-12-07T01:15:23;0.50;99.90
36552;DHT22;22559;54.176;12.102;2023-12-07T01:17:48;0.50;99.90
36552;DHT22;22559;54.176;12.102;2023-12-07T01:20:14;0.50;99.90
36552;DHT22;22559;54.176;12.102;2023-12-07T01:22:40;0.50;99.90
36552;DHT22;22559;54.176;12.102;2023-12-07T01:25:07;0.50;99.90
36552;DHT22;22559;54.176;12.102;2023-12-07T01:27:33;0.50;99.90
36552;DHT22;22559;54.176;12.102;2023-12-07T01:29:59;0.50;99.90
36552;DHT22;22559;54.176;12.102;2023-12-07T01:32:24;0.50;99.90
36552;DHT22;22559;54.176;12.102;2023-12-07T01:34:50;0.50;99.90
36552;DHT22;22559;54.176;12.102;2023-12-07T01:37:15;0.50;99.90
36552;DHT22;22559;54.176;12.102;2023-12-07T01:39:42;0.50;99.90
36552;DHT22;22559;54.176;12.102;2023-12-07T01:42:08;0.60;99.90
36552;DHT22;22559;54.176;12.102;2023-12-07T01:44:34;0.50;99.90
36552;DHT22;22559;54.176;12.102;2023-12-07T01:47:00;0.60;99.90
36552;DHT22;22559;54.176;12.102;2023-12-07T01:49:27;0.60;99.90
36552;DHT22;22559;54.176;12.102;2023-12-07T01:51:53;0.70;99.90
36552;DHT22;22559;54.176;12.102;2023-12-07T01:54:19;0.70;99.90
36552;DHT22;22559;54.176;12.102;2023-12-07T01:56:45;0.70;99.90
36552;DHT22;22559;54.176;12.102;2023-12-07T01:59:11;0.70;99.90
36552;DHT22;22559;54.176;12.102;2023-12-07T02:01:37;0.60;99.90
36552;DHT22;22559;54.176;12.102;2023-12-07T02:04:03;0.60;99.90
36552;DHT22;22559;54.176;12.102;2023-12-07T02:06:29;0.70;99.90
36552;DHT22;22559;54.176;12.102;2023-12-07T02:08:55;0.60;99.90
36552;DHT22;22559;54.176;12.102;2023-12-07T02:11:21;0.70;99.90
36552;DHT22;22559;54.176;12.102;2023-12-07T02:13:47;0.70;99.90
36552;DHT22;22559;54.176;12.102;2023-12-07T02:16:19;0.70;99.90
36552;DHT22;22559;54.176;12.102;2023-12-07T02:19:01;0.70;99.90
36552;DHT22;22559;54.176;12.102;2023-12-07T02:21:30;0.70;99.90
36552;DHT22;22559;54.176;12.102;2023-12-07T02:23:57;0.70;99.90
36552;DHT22;22559;54.176;12.102;2023-12-07T02:26:33;0.70;99.90
36552;DHT22;22559;54.176;12.102;2023-12-07T02:28:59;0.70;99.90
36552;DHT22;22559;54.176;12.102;2023-12-07T02:31:25;0.80;99.90
36552;DHT22;22559;54.176;12.102;2023-12-07T02:33:50;0.80;99.90
36552;DHT22;22559;54.176;12.102;2023-12-07T02:36:20;0.80;99.90
36552;DHT22;22559;54.176;12.102;2023-12-07T02:38:49;0.80;99.90
36552;DHT22;22559;54.176;12.102;2023-12-07T02:41:16;0.90;99.90
36552;DHT22;22559;54.176;12.102;2023-12-07T02:43:43;0.90;99.90
36552;DHT22;22559;54.176;12.102;2023-12-07T02:46:08;0.90;99.90
36552;DHT22;22559;54.176;12.102;2023-12-07T02:48:34;0.90;99.90
36552;DHT22;22559;54.176;12.102;2023-12-07T02:51:00;0.80;99.90
36552;DHT22;22559;54.176;12.102;2023-12-07T02:53:25;0.80;99.90
36552;DHT22;22559;54.176;12.102;2023-12-07T02:55:51;0.80;99.90
36552;DHT22;22559;54.176;12.102;2023-12-07T02:58:17;0.80;99.90
36552;DHT22;22559;54.176;12.102;2023-12-07T03:00:42;0.80;99.90
36552;DHT22;22559;54.176;12.102;2023-12-07T03:03:08;0.80;99.90
36552;DHT22;22559;54.176;12.102;2023-12-07T03:05:33;0.80;99.90
36552;DHT22;22559;54.176;12.102;2023-12-07T03:07:59;0.80;99.90
36552;DHT22;22559;54.176;12.102;2023-12-07T03:10:24;0.80;99.90
36552;DHT22;22559;54.176;12.102;2023-12-07T03:12:50;0.80;99.90
36552;DHT22;22559;54.176;12.102;2023-12-07T03:15:16;0.90;99.90
36552;DHT22;22559;54.176;12.102;2023-12-07T03:17:41;0.90;99.90
36552;DHT22;22559;54.176;12.102;2023-12-07T03:20:09;0.90;99.90
36552;DHT22;22559;54.176;12.102;2023-12-07T03:22:35;0.90;99.90
36552;DHT22;22559;54.176;12.102;2023-12-07T03:25:01;0.90;99.90
36552;DHT22;22559;54.176;12.102;2023-12-07T03:27:26;0.90;99.90
36552;DHT22;22559;54.176;12.102;2023-12-07T03:29:53;0.90;99.90
36552;DHT22;22559;54.176;12.102;2023-12-07T03:32:19;0.90;99.90
36552;DHT22;22559;54.176;12.102;2023-12-07T03:34:44;1.00;99.90
36552;DHT22;22559;54.176;12.102;2023-12-07T03:37:10;1.00;99.90
36552;DHT22;22559;54.176;12.102;2023-12-07T03:39:36;1.00;99.90
36552;DHT22;22559;54.176;12.102;2023-12-07T03:42:01;1.00;99.90
36552;DHT22;22559;54.176;12.102;2023-12-07T03:44:27;1.00;99.90
36552;DHT22;22559;54.176;12.102;2023-12-07T03:46:53;1.10;99.90
36552;DHT22;22559;54.176;12.102;2023-12-07T03:49:18;1.10;99.90
36552;DHT22;22559;54.176;12.102;2023-12-07T03:51:44;1.10;99.90
36552;DHT22;22559;54.176;12.102;2023-12-07T03:54:10;1.10;99.90
36552;DHT22;22559;54.176;12.102;2023-12-07T03:56:35;1.10;99.90
36552;DHT22;22559;54.176;12.102;2023-12-07T03:59:01;1.10;99.90
36552;DHT22;22559;54.176;12.102;2023-12-07T04:01:28;1.10;99.90
36552;DHT22;22559;54.176;12.102;2023-12-07T04:03:56;1.10;99.90
36552;DHT22;22559;54.176;12.102;2023-12-07T04:06:22;1.10;99.90
36552;DHT22;22559;54.176;12.102;2023-12-07T04:08:49;1.10;99.90
36552;DHT22;22559;54.176;12.102;2023-12-07T04:11:15;1.10;99.90
36552;DHT22;22559;54.176;12.102;2023-12-07T04:13:41;1.10;99.90
36552;DHT22;22559;54.176;12.102;2023-12-07T04:16:08;1.10;99.90
36552;DHT22;22559;54.176;12.102;2023-12-07T04:18:34;1.10;99.90
36552;DHT22;22559;54.176;12.102;2023-12-07T04:21:00;1.10;99.90
36552;DHT22;22559;54.176;12.102;2023-12-07T04:23:25;1.10;99.90
36552;DHT22;22559;54.176;12.102;2023-12-07T04:25:51;1.10;99.90
36552;DHT22;22559;54.176;12.102;2023-12-07T04:28:17;1.10;99.90
36552;DHT22;22559;54.176;12.102;2023-12-07T04:30:42;1.10;99.90
36552;DHT22;22559;54.176;12.102;2023-12-07T04:33:08;1.10;99.90
36552;DHT22;22559;54.176;12.102;2023-12-07T04:35:34;1.20;99.90
36552;DHT22;22559;54.176;12.102;2023-12-07T04:38:00;1.20;99.90
36552;DHT22;22559;54.176;12.102;2023-12-07T04:40:25;1.20;99.90
36552;DHT22;22559;54.176;12.102;2023-12-07T04:42:51;1.20;99.90
36552;DHT22;22559;54.176;12.102;2023-12-07T04:45:17;1.20;99.90
36552;DHT22;22559;54.176;12.102;2023-12-07T04:47:43;1.20;99.90
36552;DHT22;22559;54.176;12.102;2023-12-07T04:50:08;1.20;99.90
36552;DHT22;22559;54.176;12.102;2023-12-07T04:52:35;1.20;99.90
36552;DHT22;22559;54.176;12.102;2023-12-07T04:55:01;1.20;99.90
36552;DHT22;22559;54.176;12.102;2023-12-07T04:57:26;1.20;99.90
36552;DHT22;22559;54.176;12.102;2023-12-07T04:59:52;1.20;99.90
36552;DHT22;22559;54.176;12.102;2023-12-07T05:02:17;1.20;99.90
36552;DHT22;22559;54.176;12.102;2023-12-07T05:04:44;1.20;99.90
36552;DHT22;22559;54.176;12.102;2023-12-07T05:07:11;1.20;99.90
36552;DHT22;22559;54.176;12.102;2023-12-07T05:09:36;1.30;99.90
36552;DHT22;22559;54.176;12.102;2023-12-07T05:12:02;1.30;99.90
36552;DHT22;22559;54.176;12.102;2023-12-07T05:14:28;1.20;99.90
36552;DHT22;22559;54.176;12.102;2023-12-07T05:16:53;1.30;99.90
36552;DHT22;22559;54.176;12.102;2023-12-07T05:19:24;1.30;99.90
36552;DHT22;22559;54.176;12.102;2023-12-07T05:21:51;1.30;99.90
36552;DHT22;22559;54.176;12.102;2023-12-07T05:24:16;1.30;99.90
36552;DHT22;22559;54.176;12.102;2023-12-07T05:26:43;1.30;99.90
36552;DHT22;22559;54.176;12.102;2023-12-07T05:29:08;1.30;99.90
36552;DHT22;22559;54.176;12.102;2023-12-07T05:31:35;1.40;99.90
36552;DHT22;22559;54.176;12.102;2023-12-07T05:34:02;1.50;99.90
36552;DHT22;22559;54.176;12.102;2023-12-07T05:36:27;1.60;99.90
36552;DHT22;22559;54.176;12.102;2023-12-07T05:38:53;1.60;99.90
36552;DHT22;22559;54.176;12.102;2023-12-07T05:41:19;1.60;99.90
36552;DHT22;22559;54.176;12.102;2023-12-07T05:43:44;1.50;99.90
36552;DHT22;22559;54.176;12.102;2023-12-07T05:46:10;1.50;99.90
36552;DHT22;22559;54.176;12.102;2023-12-07T05:48:36;1.40;99.90
36552;DHT22;22559;54.176;12.102;2023-12-07T05:51:02;1.40;99.90
36552;DHT22;22559;54.176;12.102;2023-12-07T05:53:28;1.40;99.90
36552;DHT22;22559;54.176;12.102;2023-12-07T05:55:57;1.40;99.90
36552;DHT22;22559;54.176;12.102;2023-12-07T05:58:22;1.40;99.90
36552;DHT22;22559;54.176;12.102;2023-12-07T06:00:48;1.40;99.90
36552;DHT22;22559;54.176;12.102;2023-12-07T06:03:13;1.40;99.90
36552;DHT22;22559;54.176;12.102;2023-12-07T06:05:41;1.40;99.90
36552;DHT22;22559;54.176;12.102;2023-12-07T06:08:07;1.40;99.90
36552;DHT22;22559;54.176;12.102;2023-12-07T06:10:33;1.40;99.90
36552;DHT22;22559;54.176;12.102;2023-12-07T06:12:58;1.40;99.90
36552;DHT22;22559;54.176;12.102;2023-12-07T06:15:26;1.40;99.90
36552;DHT22;22559;54.176;12.102;2023-12-07T06:17:52;1.40;99.90
36552;DHT22;22559;54.176;12.102;2023-12-07T06:20:18;1.30;99.90
36552;DHT22;22559;54.176;12.102;2023-12-07T06:22:44;1.40;99.90
36552;DHT22;22559;54.176;12.102;2023-12-07T06:25:09;1.40;99.90
36552;DHT22;22559;54.176;12.102;2023-12-07T06:27:36;1.40;99.90
36552;DHT22;22559;54.176;12.102;2023-12-07T06:30:01;1.40;99.90
36552;DHT22;22559;54.176;12.102;2023-12-07T06:32:27;1.40;99.90
36552;DHT22;22559;54.176;12.102;2023-12-07T06:34:53;1.40;99.90
36552;DHT22;22559;54.176;12.102;2023-12-07T06:37:18;1.40;99.90
36552;DHT22;22559;54.176;12.102;2023-12-07T06:39:45;1.40;99.90
36552;DHT22;22559;54.176;12.102;2023-12-07T06:42:11;1.50;99.90
36552;DHT22;22559;54.176;12.102;2023-12-07T06:44:36;1.50;99.90
36552;DHT22;22559;54.176;12.102;2023-12-07T06:47:02;1.40;99.90
36552;DHT22;22559;54.176;12.102;2023-12-07T06:49:30;1.40;99.90
36552;DHT22;22559;54.176;12.102;2023-12-07T06:51:56;1.40;99.90
36552;DHT22;22559;54.176;12.102;2023-12-07T06:54:21;1.40;99.90
36552;DHT22;22559;54.176;12.102;2023-12-07T06:56:47;1.40;99.90
36552;DHT22;22559;54.176;12.102;2023-12-07T06:59:13;1.50;99.90
36552;DHT22;22559;54.176;12.102;2023-12-07T07:01:40;1.40;99.90
36552;DHT22;22559;54.176;12.102;2023-12-07T07:04:05;1.40;99.90
36552;DHT22;22559;54.176;12.102;2023-12-07T07:06:31;1.40;99.90
36552;DHT22;22559;54.176;12.102;2023-12-07T07:08:56;1.40;99.90
36552;DHT22;22559;54.176;12.102;2023-12-07T07:11:22;1.40;99.90
36552;DHT22;22559;54.176;12.102;2023-12-07T07:13:48;1.40;99.90
36552;DHT22;22559;54.176;12.102;2023-12-07T07:16:13;1.40;99.90
36552;DHT22;22559;54.176;12.102;2023-12-07T07:18:40;1.40;99.90
36552;DHT22;22559;54.176;12.102;2023-12-07T07:21:06;1.50;99.90
36552;DHT22;22559;54.176;12.102;2023-12-07T07:23:33;1.50;99.90
36552;DHT22;22559;54.176;12.102;2023-12-07T07:25:59;1.50;99.90
36552;DHT22;22559;54.176;12.102;2023-12-07T07:28:24;1.50;99.90
36552;DHT22;22559;54.176;12.102;2023-12-07T07:30:50;1.50;99.90
36552;DHT22;22559;54.176;12.102;2023-12-07T07:33:16;1.50;99.90
36552;DHT22;22559;54.176;12.102;2023-12-07T07:35:43;1.50;99.90
36552;DHT22;22559;54.176;12.102;2023-12-07T07:38:09;1.50;99.90
36552;DHT22;22559;54.176;12.102;2023-12-07T07:40:34;1.50;99.90
36552;DHT22;22559;54.176;12.102;2023-12-07T07:43:01;1.50;99.90
36552;DHT22;22559;54.176;12.102;2023-12-07T07:45:27;1.50;99.90
36552;DHT22;22559;54.176;12.102;2023-12-07T07:47:53;1.50;99.90
36552;DHT22;22559;54.176;12.102;2023-12-07T07:50:19;1.50;99.90
36552;DHT22;22559;54.176;12.102;2023-12-07T07:52:45;1.50;99.90
36552;DHT22;22559;54.176;12.102;2023-12-07T07:55:11;1.60;99.90
36552;DHT22;22559;54.176;12.102;2023-12-07T07:57:37;1.60;99.90
36552;DHT22;22559;54.176;12.102;2023-12-07T08:00:03;1.60;99.90
36552;DHT22;22559;54.176;12.102;2023-12-07T08:02:30;1.60;99.90
36552;DHT22;22559;54.176;12.102;2023-12-07T08:04:56;1.60;99.90
36552;DHT22;22559;54.176;12.102;2023-12-07T08:07:22;1.60;99.90
36552;DHT22;22559;54.176;12.102;2023-12-07T08:09:47;1.60;99.90
36552;DHT22;22559;54.176;12.102;2023-12-07T08:12:13;1.60;99.90
36552;DHT22;22559;54.176;12.102;2023-12-07T08:14:39;1.60;99.90
36552;DHT22;22559;54.176;12.102;2023-12-07T08:17:05;1.60;99.90
36552;DHT22;22559;54.176;12.102;2023-12-07T08:19:31;1.60;99.90
36552;DHT22;22559;54.176;12.102;2023-12-07T08:21:56;1.60;99.90
36552;DHT22;22559;54.176;12.102;2023-12-07T08:24:22;1.70;99.90
36552;DHT22;22559;54.176;12.102;2023-12-07T08:26:48;1.70;99.90
36552;DHT22;22559;54.176;12.102;2023-12-07T08:29:14;1.70;99.90
36552;DHT22;22559;54.176;12.102;2023-12-07T08:31:42;1.70;99.90
36552;DHT22;22559;54.176;12.102;2023-12-07T08:34:07;1.70;99.90
36552;DHT22;22559;54.176;12.102;2023-12-07T08:36:33;1.70;99.90
36552;DHT22;22559;54.176;12.102;2023-12-07T08:38:59;1.70;99.90
36552;DHT22;22559;54.176;12.102;2023-12-07T08:41:24;1.70;99.90
36552;DHT22;22559;54.176;12.102;2023-12-07T08:43:50;1.70;99.90
36552;DHT22;22559;54.176;12.102;2023-12-07T08:46:16;1.70;99.90
36552;DHT22;22559;54.176;12.102;2023-12-07T08:48:41;1.70;99.90
36552;DHT22;22559;54.176;12.102;2023-12-07T08:51:08;1.70;99.90
36552;DHT22;22559;54.176;12.102;2023-12-07T08:53:35;1.70;99.90
36552;DHT22;22559;54.176;12.102;2023-12-07T08:56:01;1.70;99.90
36552;DHT22;22559;54.176;12.102;2023-12-07T08:58:27;1.80;99.90
36552;DHT22;22559;54.176;12.102;2023-12-07T09:00:53;1.80;99.90
36552;DHT22;22559;54.176;12.102;2023-12-07T09:03:18;1.70;99.90
36552;DHT22;22559;54.176;12.102;2023-12-07T09:05:44;1.70;99.90
36552;DHT22;22559;54.176;12.102;2023-12-07T09:08:10;1.70;99.90
36552;DHT22;22559;54.176;12.102;2023-12-07T09:10:35;1.70;99.90
36552;DHT22;22559;54.176;12.102;2023-12-07T09:13:01;1.70;99.90
36552;DHT22;22559;54.176;12.102;2023-12-07T09:15:27;1.70;99.90
36552;DHT22;22559;54.176;12.102;2023-12-07T09:17:53;1.70;99.90
36552;DHT22;22559;54.176;12.102;2023-12-07T09:20:18;1.70;99.90
36552;DHT22;22559;54.176;12.102;2023-12-07T09:22:45;1.70;99.90
36552;DHT22;22559;54.176;12.102;2023-12-07T09:25:11;1.70;99.90
36552;DHT22;22559;54.176;12.102;2023-12-07T09:27:38;1.70;99.90
36552;DHT22;22559;54.176;12.102;2023-12-07T09:30:08;1.70;99.90
36552;DHT22;22559;54.176;12.102;2023-12-07T09:32:37;1.70;99.90
36552;DHT22;22559;54.176;12.102;2023-12-07T09:35:07;1.70;99.90
36552;DHT22;22559;54.176;12.102;2023-12-07T09:37:34;1.70;99.90
36552;DHT22;22559;54.176;12.102;2023-12-07T09:40:00;1.80;99.90
36552;DHT22;22559;54.176;12.102;2023-12-07T09:42:26;1.80;99.90
36552;DHT22;22559;54.176;12.102;2023-12-07T09:44:53;1.80;99.90
36552;DHT22;22559;54.176;12.102;2023-12-07T09:47:19;1.80;99.90
36552;DHT22;22559;54.176;12.102;2023-12-07T09:49:45;1.80;99.90
36552;DHT22;22559;54.176;12.102;2023-12-07T09:52:11;1.80;99.90
36552;DHT22;22559;54.176;12.102;2023-12-07T09:54:40;1.80;99.90
36552;DHT22;22559;54.176;12.102;2023-12-07T09:57:06;1.80;99.90
36552;DHT22;22559;54.176;12.102;2023-12-07T09:59:32;1.80;99.90
36552;DHT22;22559;54.176;12.102;2023-12-07T10:01:57;1.70;99.90
36552;DHT22;22559;54.176;12.102;2023-12-07T10:04:25;1.80;99.90
36552;DHT22;22559;54.176;12.102;2023-12-07T10:06:52;1.80;99.90
36552;DHT22;22559;54.176;12.102;2023-12-07T10:09:18;1.80;99.90
36552;DHT22;22559;54.176;12.102;2023-12-07T10:11:50;1.80;99.90
36552;DHT22;22559;54.176;12.102;2023-12-07T10:14:27;1.70;99.90
36552;DHT22;22559;54.176;12.102;2023-12-07T10:16:54;1.70;99.90
36552;DHT22;22559;54.176;12.102;2023-12-07T10:19:21;1.70;99.90
36552;DHT22;22559;54.176;12.102;2023-12-07T10:21:51;1.70;99.90
36552;DHT22;22559;54.176;12.102;2023-12-07T10:24:22;1.70;99.90
36552;DHT22;22559;54.176;12.102;2023-12-07T10:26:49;1.70;99.90
36552;DHT22;22559;54.176;12.102;2023-12-07T10:29:14;1.70;99.90
36552;DHT22;22559;54.176;12.102;2023-12-07T10:31:42;1.70;99.90
36552;DHT22;22559;54.176;12.102;2023-12-07T10:34:09;1.80;99.90
36552;DHT22;22559;54.176;12.102;2023-12-07T10:36:35;1.80;99.90
36552;DHT22;22559;54.176;12.102;2023-12-07T10:39:01;1.70;99.90
36552;DHT22;22559;54.176;12.102;2023-12-07T10:41:31;1.70;99.90
36552;DHT22;22559;54.176;12.102;2023-12-07T10:44:00;1.80;99.90
36552;DHT22;22559;54.176;12.102;2023-12-07T10:46:27;1.80;99.90
36552;DHT22;22559;54.176;12.102;2023-12-07T10:49:00;1.80;99.90
36552;DHT22;22559;54.176;12.102;2023-12-07T10:51:41;1.80;99.90
36552;DHT22;22559;54.176;12.102;2023-12-07T10:54:07;1.80;99.90
36552;DHT22;22559;54.176;12.102;2023-12-07T10:56:44;1.80;99.90
36552;DHT22;22559;54.176;12.102;2023-12-07T10:59:11;1.90;99.90
36552;DHT22;22559;54.176;12.102;2023-12-07T11:01:40;1.90;99.90
36552;DHT22;22559;54.176;12.102;2023-12-07T11:04:11;1.90;99.90
36552;DHT22;22559;54.176;12.102;2023-12-07T11:06:38;1.90;99.90
36552;DHT22;22559;54.176;12.102;2023-12-07T11:09:08;1.90;99.90
36552;DHT22;22559;54.176;12.102;2023-12-07T11:11:48;1.90;99.90
36552;DHT22;22559;54.176;12.102;2023-12-07T11:14:17;1.90;99.90
36552;DHT22;22559;54.176;12.102;2023-12-07T11:16:45;1.90;99.90
36552;DHT22;22559;54.176;12.102;2023-12-07T11:22:06;1.90;99.90
36552;DHT22;22559;54.176;12.102;2023-12-07T11:24:32;1.90;99.90
36552;DHT22;22559;54.176;12.102;2023-12-07T11:26:58;1.90;99.90
36552;DHT22;22559;54.176;12.102;2023-12-07T11:29:31;2.00;99.90
36552;DHT22;22559;54.176;12.102;2023-12-07T11:32:04;2.00;99.90
36552;DHT22;22559;54.176;12.102;2023-12-07T11:34:38;2.00;99.90
36552;DHT22;22559;54.176;12.102;2023-12-07T11:37:05;2.00;99.90
36552;DHT22;22559;54.176;12.102;2023-12-07T11:39:37;2.00;99.90
36552;DHT22;22559;54.176;12.102;2023-12-07T11:42:17;2.00;99.90
36552;DHT22;22559;54.176;12.102;2023-12-07T11:44:45;2.00;99.90
36552;DHT22;22559;54.176;12.102;2023-12-07T11:47:16;2.00;99.90
36552;DHT22;22559;54.176;12.102;2023-12-07T11:49:43;2.00;99.90
36552;DHT22;22559;54.176;12.102;2023-12-07T11:52:14;2.00;99.90
36552;DHT22;22559;54.176;12.102;2023-12-07T11:54:40;2.00;99.90
36552;DHT22;22559;54.176;12.102;2023-12-07T11:57:05;2.00;99.90
36552;DHT22;22559;54.176;12.102;2023-12-07T11:59:31;2.00;99.90
36552;DHT22;22559;54.176;12.102;2023-12-07T12:01:59;2.00;99.90
36552;DHT22;22559;54.176;12.102;2023-12-07T12:04:25;2.00;99.90
36552;DHT22;22559;54.176;12.102;2023-12-07T12:06:50;2.00;99.90
36552;DHT22;22559;54.176;12.102;2023-12-07T12:09:16;2.00;99.90
36552;DHT22;22559;54.176;12.102;2023-12-07T12:11:48;2.10;99.90
36552;DHT22;22559;54.176;12.102;2023-12-07T12:14:17;2.10;99.90
36552;DHT22;22559;54.176;12.102;2023-12-07T12:16:44;2.10;99.90
36552;DHT22;22559;54.176;12.102;2023-12-07T12:19:10;2.10;99.90
36552;DHT22;22559;54.176;12.102;2023-12-07T12:21:39;2.10;99.90
36552;DHT22;22559;54.176;12.102;2023-12-07T12:24:06;2.10;99.90
36552;DHT22;22559;54.176;12.102;2023-12-07T12:26:34;2.20;99.90
36552;DHT22;22559;54.176;12.102;2023-12-07T12:29:01;2.20;99.90
36552;DHT22;22559;54.176;12.102;2023-12-07T12:31:27;2.20;99.90
36552;DHT22;22559;54.176;12.102;2023-12-07T12:33:53;2.20;99.90
36552;DHT22;22559;54.176;12.102;2023-12-07T12:36:20;2.20;99.90
36552;DHT22;22559;54.176;12.102;2023-12-07T12:38:49;2.20;99.90
36552;DHT22;22559;54.176;12.102;2023-12-07T12:41:21;2.20;99.90
36552;DHT22;22559;54.176;12.102;2023-12-07T12:43:48;2.10;99.90
36552;DHT22;22559;54.176;12.102;2023-12-07T12:46:14;2.20;99.90
36552;DHT22;22559;54.176;12.102;2023-12-07T12:48:57;2.10;99.90
36552;DHT22;22559;54.176;12.102;2023-12-07T12:51:24;2.10;99.90
36552;DHT22;22559;54.176;12.102;2023-12-07T12:53:51;2.10;99.90
36552;DHT22;22559;54.176;12.102;2023-12-07T12:56:19;2.10;99.90
36552;DHT22;22559;54.176;12.102;2023-12-07T12:58:45;2.10;99.90
36552;DHT22;22559;54.176;12.102;2023-12-07T13:01:11;2.10;99.90
36552;DHT22;22559;54.176;12.102;2023-12-07T13:03:37;2.10;99.90
36552;DHT22;22559;54.176;12.102;2023-12-07T13:06:02;2.10;99.90
36552;DHT22;22559;54.176;12.102;2023-12-07T13:08:28;2.10;99.90
36552;DHT22;22559;54.176;12.102;2023-12-07T13:10:54;2.10;99.90
36552;DHT22;22559;54.176;12.102;2023-12-07T13:13:19;2.10;99.90
36552;DHT22;22559;54.176;12.102;2023-12-07T13:15:46;2.10;99.90
36552;DHT22;22559;54.176;12.102;2023-12-07T13:18:11;2.10;99.90
36552;DHT22;22559;54.176;12.102;2023-12-07T13:20:38;2.10;99.90
36552;DHT22;22559;54.176;12.102;2023-12-07T13:23:04;2.10;99.90
36552;DHT22;22559;54.176;12.102;2023-12-07T13:25:30;2.20;99.90
36552;DHT22;22559;54.176;12.102;2023-12-07T13:27:56;2.10;99.90
36552;DHT22;22559;54.176;12.102;2023-12-07T13:30:21;2.20;99.90
36552;DHT22;22559;54.176;12.102;2023-12-07T13:32:47;2.10;99.90
36552;DHT22;22559;54.176;12.102;2023-12-07T13:35:13;2.20;99.90
36552;DHT22;22559;54.176;12.102;2023-12-07T13:37:39;2.10;99.90
36552;DHT22;22559;54.176;12.102;2023-12-07T13:40:05;2.20;99.90
36552;DHT22;22559;54.176;12.102;2023-12-07T13:42:35;2.10;99.90
36552;DHT22;22559;54.176;12.102;2023-12-07T13:45:01;2.20;99.90
36552;DHT22;22559;54.176;12.102;2023-12-07T13:47:28;2.10;99.90
36552;DHT22;22559;54.176;12.102;2023-12-07T13:50:02;2.10;99.90
36552;DHT22;22559;54.176;12.102;2023-12-07T13:52:29;2.20;99.90
36552;DHT22;22559;54.176;12.102;2023-12-07T13:54:55;2.20;99.90
36552;DHT22;22559;54.176;12.102;2023-12-07T13:57:22;2.20;99.90
36552;DHT22;22559;54.176;12.102;2023-12-07T13:59:53;2.10;99.90
36552;DHT22;22559;54.176;12.102;2023-12-07T14:02:19;2.20;99.90
36552;DHT22;22559;54.176;12.102;2023-12-07T14:04:46;2.30;99.90
36552;DHT22;22559;54.176;12.102;2023-12-07T14:07:16;2.20;99.90
36552;DHT22;22559;54.176;12.102;2023-12-07T14:09:44;2.20;99.90
36552;DHT22;22559;54.176;12.102;2023-12-07T14:12:10;2.20;99.90
36552;DHT22;22559;54.176;12.102;2023-12-07T14:14:43;2.20;99.90
36552;DHT22;22559;54.176;12.102;2023-12-07T14:17:10;2.20;99.90
36552;DHT22;22559;54.176;12.102;2023-12-07T14:19:36;2.20;99.90
36552;DHT22;22559;54.176;12.102;2023-12-07T14:22:01;2.20;99.90
36552;DHT22;22559;54.176;12.102;2023-12-07T14:24:28;2.20;99.90
36552;DHT22;22559;54.176;12.102;2023-12-07T14:26:56;2.20;99.90
36552;DHT22;22559;54.176;12.102;2023-12-07T14:29:22;2.20;99.90
36552;DHT22;22559;54.176;12.102;2023-12-07T14:31:50;2.20;99.90
36552;DHT22;22559;54.176;12.102;2023-12-07T14:34:17;2.20;99.90
36552;DHT22;22559;54.176;12.102;2023-12-07T14:36:43;2.20;99.90
36552;DHT22;22559;54.176;12.102;2023-12-07T14:39:13;2.20;99.90
36552;DHT22;22559;54.176;12.102;2023-12-07T14:41:46;2.20;99.90
36552;DHT22;22559;54.176;12.102;2023-12-07T14:44:32;2.20;99.90
36552;DHT22;22559;54.176;12.102;2023-12-07T14:46:58;2.20;99.90
36552;DHT22;22559;54.176;12.102;2023-12-07T14:49:24;2.20;99.90
36552;DHT22;22559;54.176;12.102;2023-12-07T14:51:51;2.20;99.90
36552;DHT22;22559;54.176;12.102;2023-12-07T14:54:17;2.20;99.90
36552;DHT22;22559;54.176;12.102;2023-12-07T14:56:43;2.20;99.90
36552;DHT22;22559;54.176;12.102;2023-12-07T14:59:09;2.20;99.90
36552;DHT22;22559;54.176;12.102;2023-12-07T15:01:37;2.20;99.90
36552;DHT22;22559;54.176;12.102;2023-12-07T15:04:04;2.20;99.90
36552;DHT22;22559;54.176;12.102;2023-12-07T15:06:31;2.20;99.90
36552;DHT22;22559;54.176;12.102;2023-12-07T15:08:57;2.20;99.90
36552;DHT22;22559;54.176;12.102;2023-12-07T15:11:23;2.20;99.90
36552;DHT22;22559;54.176;12.102;2023-12-07T15:13:49;2.20;99.90
36552;DHT22;22559;54.176;12.102;2023-12-07T15:16:15;2.20;99.90
36552;DHT22;22559;54.176;12.102;2023-12-07T15:18:41;2.20;99.90
36552;DHT22;22559;54.176;12.102;2023-12-07T15:21:16;2.20;99.90
36552;DHT22;22559;54.176;12.102;2023-12-07T15:23:42;2.20;99.90
36552;DHT22;22559;54.176;12.102;2023-12-07T15:26:11;2.20;99.90
36552;DHT22;22559;54.176;12.102;2023-12-07T15:28:37;2.20;99.90